createdAt,value
2018-03-23T00:00:44.565Z,3.40
2018-03-23T00:03:12.080Z,3.40
2018-03-23T00:05:39.575Z,3.40
2018-03-23T00:08:07.083Z,3.40
2018-03-23T00:10:34.560Z,3.40
2018-03-23T00:13:02.078Z,3.40
2018-03-23T00:15:30.326Z,3.40
2018-03-23T00:17:57.946Z,3.30
2018-03-23T00:20:25.437Z,3.30
2018-03-23T00:22:52.924Z,3.30
2018-03-23T00:25:21.953Z,3.30
2018-03-23T00:27:49.447Z,3.30
2018-03-23T00:30:16.986Z,3.20
2018-03-23T00:32:44.480Z,3.20
2018-03-23T00:35:11.997Z,3.30
2018-03-23T00:37:39.483Z,3.30
2018-03-23T00:40:07.007Z,3.30
2018-03-23T00:42:34.501Z,3.30
2018-03-23T00:45:02.041Z,3.30
2018-03-23T00:47:29.528Z,3.30
2018-03-23T00:49:57.214Z,3.30
2018-03-23T00:52:25.472Z,3.30
2018-03-23T00:54:52.978Z,3.30
2018-03-23T00:57:20.552Z,3.40
2018-03-23T00:59:48.037Z,3.40
2018-03-23T01:02:15.553Z,3.40
2018-03-23T01:04:43.045Z,3.40
2018-03-23T01:07:10.559Z,3.40
2018-03-23T01:09:38.126Z,3.40
2018-03-23T01:12:05.597Z,3.40
2018-03-23T01:14:33.147Z,3.40
2018-03-23T01:17:01.393Z,3.40
2018-03-23T01:19:29.681Z,3.40
2018-03-23T01:21:57.209Z,3.30
2018-03-23T01:24:24.715Z,3.40
2018-03-23T01:26:52.238Z,3.40
2018-03-23T01:29:20.487Z,3.40
2018-03-23T01:31:48.002Z,3.40
2018-03-23T01:34:15.492Z,3.40
2018-03-23T01:36:43.013Z,3.40
2018-03-23T01:39:10.513Z,3.40
2018-03-23T01:41:38.039Z,3.40
2018-03-23T01:44:05.528Z,3.40
2018-03-23T01:46:33.038Z,3.40
2018-03-23T01:49:00.527Z,3.40
2018-03-23T01:51:28.083Z,3.50
2018-03-23T01:53:55.591Z,3.50
2018-03-23T01:56:23.114Z,3.50
2018-03-23T01:58:50.606Z,3.60
2018-03-23T02:01:18.876Z,3.60
2018-03-23T02:03:46.394Z,3.60
2018-03-23T02:06:13.890Z,3.60
2018-03-23T02:08:41.400Z,3.50
2018-03-23T02:11:08.936Z,3.50
2018-03-23T02:13:37.187Z,3.50
2018-03-23T02:16:04.694Z,3.50
2018-03-23T02:18:32.228Z,3.50
2018-03-23T02:21:00.482Z,3.50
2018-03-23T02:23:28.005Z,3.50
2018-03-23T02:25:55.490Z,3.50
2018-03-23T02:28:23.038Z,3.50
2018-03-23T02:30:50.532Z,3.50
2018-03-23T02:33:18.827Z,3.60
2018-03-23T02:35:46.316Z,3.60
2018-03-23T02:38:13.938Z,3.60
2018-03-23T02:40:41.433Z,3.60
2018-03-23T02:43:08.985Z,3.60
2018-03-23T02:45:36.470Z,3.60
2018-03-23T02:48:03.956Z,3.60
2018-03-23T02:50:32.232Z,3.60
2018-03-23T02:53:00.484Z,3.60
2018-03-23T02:55:28.003Z,3.60
2018-03-23T02:57:55.494Z,3.60
2018-03-23T03:00:23.010Z,3.50
2018-03-23T03:02:50.499Z,3.50
2018-03-23T03:05:18.020Z,3.50
2018-03-23T03:07:45.512Z,3.50
2018-03-23T03:10:13.023Z,3.50
2018-03-23T03:12:41.297Z,3.50
2018-03-23T03:15:09.590Z,3.50
2018-03-23T03:17:37.074Z,3.50
2018-03-23T03:20:04.698Z,3.50
2018-03-23T03:22:33.008Z,3.50
2018-03-23T03:25:00.557Z,3.50
2018-03-23T03:27:28.062Z,3.60
2018-03-23T03:29:55.548Z,3.60
2018-03-23T03:32:23.855Z,3.60
2018-03-23T03:34:51.343Z,3.60
2018-03-23T03:37:18.969Z,3.60
2018-03-23T03:39:46.461Z,3.70
2018-03-23T03:42:13.976Z,3.70
2018-03-23T03:44:41.466Z,3.80
2018-03-23T03:47:08.979Z,3.80
2018-03-23T03:49:37.243Z,3.80
2018-03-23T03:52:05.554Z,3.80
2018-03-23T03:54:33.047Z,3.80
2018-03-23T03:57:00.563Z,3.80
2018-03-23T03:59:28.054Z,3.80
2018-03-23T04:01:55.568Z,3.80
2018-03-23T04:04:23.830Z,3.80
2018-03-23T04:06:52.232Z,3.80
2018-03-23T04:09:19.735Z,3.80
2018-03-23T04:11:47.239Z,3.80
2018-03-23T04:14:15.514Z,3.80
2018-03-23T04:16:43.759Z,3.80
2018-03-23T04:19:11.271Z,3.80
2018-03-23T04:21:38.758Z,3.90
2018-03-23T04:24:07.039Z,4.00
2018-03-23T04:26:34.529Z,3.90
2018-03-23T04:29:02.807Z,4.10
2018-03-23T04:31:30.308Z,4.00
2018-03-23T04:33:57.824Z,4.10
2018-03-23T04:36:26.075Z,4.20
2018-03-23T04:38:53.601Z,4.10
2018-03-23T04:41:21.147Z,4.20
2018-03-23T04:43:48.650Z,4.10
2018-03-23T04:46:16.164Z,4.10
2018-03-23T04:48:43.673Z,4.10
2018-03-23T04:51:11.175Z,4.10
2018-03-23T04:53:38.710Z,4.10
2018-03-23T04:56:06.960Z,4.20
2018-03-23T04:58:34.498Z,4.20
2018-03-23T05:01:02.005Z,4.20
2018-03-23T05:03:29.510Z,4.30
2018-03-23T05:05:57.025Z,4.30
2018-03-23T05:08:25.270Z,4.40
2018-03-23T05:10:52.898Z,4.30
2018-03-23T05:13:20.389Z,4.30
2018-03-23T05:15:47.907Z,4.40
2018-03-23T05:18:15.433Z,4.40
2018-03-23T05:20:43.722Z,4.40
2018-03-23T05:23:11.214Z,4.40
2018-03-23T05:25:38.755Z,4.40
2018-03-23T05:28:06.262Z,4.40
2018-03-23T05:30:33.778Z,4.40
2018-03-23T05:33:01.285Z,4.40
2018-03-23T05:35:28.794Z,4.40
2018-03-23T05:37:56.291Z,4.50
2018-03-23T05:40:24.695Z,4.50
2018-03-23T05:42:52.947Z,4.50
2018-03-23T05:45:20.441Z,4.50
2018-03-23T05:47:47.950Z,4.60
2018-03-23T05:50:15.448Z,4.60
2018-03-23T05:52:43.762Z,4.60
2018-03-23T05:55:11.312Z,4.60
2018-03-23T05:57:38.919Z,4.60
2018-03-23T06:00:06.417Z,4.70
2018-03-23T06:02:33.925Z,4.70
2018-03-23T06:05:01.422Z,4.80
2018-03-23T06:07:29.695Z,4.80
2018-03-23T06:09:57.946Z,4.80
2018-03-23T06:12:25.470Z,4.80
2018-03-23T06:14:52.959Z,4.80
2018-03-23T06:17:20.476Z,4.80
2018-03-23T06:19:47.963Z,4.80
2018-03-23T06:22:15.595Z,4.80
2018-03-23T06:24:43.096Z,4.90
2018-03-23T06:27:10.614Z,4.90
2018-03-23T06:29:38.867Z,4.90
2018-03-23T06:32:06.378Z,4.90
2018-03-23T06:34:33.861Z,4.90
2018-03-23T06:37:01.391Z,5.00
2018-03-23T06:39:28.867Z,5.00
2018-03-23T06:41:56.395Z,5.00
2018-03-23T06:44:23.894Z,5.10
2018-03-23T06:46:51.411Z,5.10
2018-03-23T06:49:18.892Z,5.20
2018-03-23T06:51:46.446Z,5.20
2018-03-23T06:54:13.941Z,5.20
2018-03-23T06:56:42.209Z,5.40
2018-03-23T06:59:10.484Z,5.50
2018-03-23T07:01:38.801Z,5.50
2018-03-23T07:04:07.064Z,5.50
2018-03-23T07:06:34.602Z,5.50
2018-03-23T07:09:02.845Z,5.50
2018-03-23T07:11:30.331Z,5.40
2018-03-23T07:13:58.601Z,5.40
2018-03-23T07:16:26.859Z,5.40
2018-03-23T07:18:54.406Z,5.40
2018-03-23T07:21:21.913Z,5.40
2018-03-23T07:23:49.435Z,5.40
2018-03-23T07:26:17.715Z,5.40
2018-03-23T07:28:45.230Z,5.30
2018-03-23T07:31:12.725Z,5.30
2018-03-23T07:33:40.243Z,5.30
2018-03-23T07:36:07.730Z,5.30
2018-03-23T07:38:35.248Z,5.30
2018-03-23T07:41:02.763Z,5.30
2018-03-23T07:43:30.301Z,5.20
2018-03-23T07:45:57.790Z,5.30
2018-03-23T07:48:25.330Z,5.30
2018-03-23T07:50:52.814Z,5.30
2018-03-23T07:53:20.352Z,5.30
2018-03-23T07:55:47.862Z,5.20
2018-03-23T07:58:15.414Z,5.20
2018-03-23T08:00:42.914Z,5.20
2018-03-23T08:03:10.448Z,5.20
2018-03-23T08:05:37.945Z,5.30
2018-03-23T08:08:05.471Z,5.40
2018-03-23T08:10:32.964Z,5.50
2018-03-23T08:13:00.468Z,5.50
2018-03-23T08:15:27.977Z,5.40
2018-03-23T08:17:55.446Z,5.50
2018-03-23T08:20:22.982Z,5.40
2018-03-23T08:22:50.474Z,5.40
2018-03-23T08:25:17.989Z,5.50
2018-03-23T08:27:45.473Z,5.40
2018-03-23T08:30:12.991Z,5.50
2018-03-23T08:32:40.457Z,5.50
2018-03-23T08:35:07.955Z,5.40
2018-03-23T08:37:35.429Z,5.50
2018-03-23T08:40:03.819Z,5.50
2018-03-23T08:42:31.303Z,5.50
2018-03-23T08:44:58.873Z,5.40
2018-03-23T08:47:26.412Z,5.40
2018-03-23T08:49:54.763Z,5.30
2018-03-23T08:52:23.026Z,5.40
2018-03-23T08:54:50.561Z,5.40
2018-03-23T08:57:18.048Z,5.40
2018-03-23T08:59:46.335Z,5.50
2018-03-23T09:02:13.838Z,5.50
2018-03-23T09:04:41.343Z,5.60
2018-03-23T09:07:09.612Z,5.70
2018-03-23T09:09:37.914Z,5.70
2018-03-23T09:12:06.136Z,5.90
2018-03-23T09:14:33.656Z,5.80
2018-03-23T09:17:01.367Z,5.80
2018-03-23T09:19:28.860Z,5.80
2018-03-23T09:21:57.120Z,5.90
2018-03-23T09:24:24.638Z,5.90
2018-03-23T09:26:52.128Z,5.90
2018-03-23T09:29:19.700Z,6.10
2018-03-23T09:31:47.945Z,6.20
2018-03-23T09:34:15.480Z,6.20
2018-03-23T09:36:42.973Z,6.30
2018-03-23T09:39:11.239Z,6.70
2018-03-23T09:41:38.740Z,6.70
2018-03-23T09:44:06.238Z,6.80
2018-03-23T09:46:34.574Z,6.90
2018-03-23T09:49:02.816Z,7.10
2018-03-23T09:51:30.310Z,7.00
2018-03-23T09:53:58.552Z,7.40
2018-03-23T09:56:26.102Z,7.40
2018-03-23T09:58:53.581Z,7.60
2018-03-23T10:01:21.082Z,8.10
2018-03-23T10:03:49.432Z,8.20
2018-03-23T10:06:16.882Z,8.10
2018-03-23T10:08:45.141Z,8.50
2018-03-23T10:11:12.928Z,8.40
2018-03-23T10:13:40.447Z,8.60
2018-03-23T10:16:07.983Z,8.80
2018-03-23T10:18:35.475Z,8.80
2018-03-23T10:21:03.175Z,8.80
2018-03-23T10:23:30.612Z,8.60
2018-03-23T10:25:58.095Z,8.70
2018-03-23T10:28:25.612Z,8.70
2018-03-23T10:30:53.233Z,8.70
2018-03-23T10:33:20.739Z,8.70
2018-03-23T10:35:48.226Z,8.80
2018-03-23T10:38:16.513Z,8.90
2018-03-23T10:40:43.979Z,8.80
2018-03-23T10:43:11.485Z,8.90
2018-03-23T10:45:38.947Z,8.70
2018-03-23T10:48:06.445Z,8.70
2018-03-23T10:50:33.928Z,8.50
2018-03-23T10:53:01.483Z,8.40
2018-03-23T10:55:28.970Z,8.20
2018-03-23T10:57:56.732Z,8.10
2018-03-23T11:00:29.934Z,7.90
2018-03-23T11:02:57.438Z,7.90
2018-03-23T11:05:24.922Z,7.90
2018-03-23T11:07:52.445Z,7.90
2018-03-23T11:10:20.015Z,7.90
2018-03-23T11:12:47.498Z,7.80
2018-03-23T11:15:15.008Z,7.70
2018-03-23T11:17:43.251Z,7.70
2018-03-23T11:20:10.758Z,7.70
2018-03-23T11:22:38.227Z,7.60
2018-03-23T11:25:06.514Z,7.50
2018-03-23T11:27:34.004Z,7.50
2018-03-23T11:30:01.544Z,7.60
2018-03-23T11:32:29.040Z,7.70
2018-03-23T11:34:57.335Z,7.90
2018-03-23T11:37:24.814Z,7.90
2018-03-23T11:39:52.283Z,7.90
2018-03-23T11:42:19.886Z,7.90
2018-03-23T11:44:47.375Z,8.00
2018-03-23T11:47:14.862Z,8.10
2018-03-23T11:49:42.335Z,8.20
2018-03-23T11:52:09.852Z,8.20
2018-03-23T11:54:38.117Z,8.10
2018-03-23T11:57:05.639Z,8.10
2018-03-23T11:59:33.113Z,8.10
2018-03-23T12:02:01.448Z,8.10
2018-03-23T12:04:29.632Z,8.10
2018-03-23T12:06:57.372Z,8.10
2018-03-23T12:09:24.844Z,8.10
2018-03-23T12:11:52.349Z,8.00
2018-03-23T12:14:20.676Z,8.00
2018-03-23T12:16:48.117Z,8.00
2018-03-23T12:19:15.640Z,8.00
2018-03-23T12:21:44.474Z,8.00
2018-03-23T12:24:12.007Z,8.00
2018-03-23T12:26:39.493Z,7.90
2018-03-23T12:29:07.302Z,7.80
2018-03-23T12:31:34.777Z,7.80
2018-03-23T12:34:03.072Z,7.70
2018-03-23T12:36:30.668Z,7.60
2018-03-23T12:38:58.168Z,7.70
2018-03-23T12:41:26.496Z,7.70
2018-03-23T12:43:53.995Z,7.70
2018-03-23T12:46:22.276Z,7.80
2018-03-23T12:48:50.567Z,7.70
2018-03-23T12:51:18.082Z,7.70
2018-03-23T12:53:45.555Z,7.70
2018-03-23T12:56:13.474Z,7.60
2018-03-23T12:58:41.177Z,7.60
2018-03-23T13:01:08.752Z,7.70
2018-03-23T13:03:36.991Z,7.60
2018-03-23T13:06:04.494Z,7.60
2018-03-23T13:08:32.742Z,7.60
2018-03-23T13:11:00.230Z,7.60
2018-03-23T13:13:28.521Z,7.60
2018-03-23T13:15:59.012Z,7.60
2018-03-23T13:18:28.793Z,7.60
2018-03-23T13:21:00.505Z,7.60
2018-03-23T13:23:42.568Z,7.50
2018-03-23T13:28:57.237Z,7.50
2018-03-23T13:34:03.698Z,7.30
2018-03-23T13:36:41.711Z,7.30
2018-03-23T13:39:09.643Z,7.30
2018-03-23T13:41:37.141Z,7.20
2018-03-23T13:44:18.693Z,7.20
2018-03-23T13:46:46.966Z,7.20
2018-03-23T13:49:14.470Z,7.20
2018-03-23T13:51:41.940Z,7.10
2018-03-23T13:54:09.518Z,7.10
2018-03-23T13:56:37.026Z,7.10
2018-03-23T13:59:10.112Z,7.20
2018-03-23T14:01:41.465Z,7.20
2018-03-23T14:04:08.944Z,7.40
2018-03-23T14:06:36.457Z,7.50
2018-03-23T14:09:03.952Z,7.40
2018-03-23T14:11:31.479Z,7.40
2018-03-23T14:13:58.951Z,7.30
2018-03-23T14:16:26.472Z,7.30
2018-03-23T14:18:54.770Z,7.30
2018-03-23T14:21:22.294Z,7.30
2018-03-23T14:23:49.866Z,7.30
2018-03-23T14:26:18.115Z,7.30
2018-03-23T14:28:45.630Z,7.30
2018-03-23T14:31:13.101Z,7.30
2018-03-23T14:33:40.596Z,7.30
2018-03-23T14:36:08.067Z,7.30
2018-03-23T14:38:35.574Z,7.30
2018-03-23T14:41:03.047Z,7.20
2018-03-23T14:43:30.561Z,7.20
2018-03-23T14:45:58.817Z,7.10
2018-03-23T14:48:26.344Z,7.10
2018-03-23T14:50:53.813Z,7.10
2018-03-23T14:53:21.326Z,7.00
2018-03-23T14:55:48.805Z,7.10
2018-03-23T14:58:16.448Z,7.10
2018-03-23T15:00:43.939Z,7.10
2018-03-23T15:03:11.465Z,7.00
2018-03-23T15:05:38.957Z,7.10
2018-03-23T15:08:06.470Z,7.10
2018-03-23T15:10:34.009Z,7.10
2018-03-23T15:13:01.569Z,7.10
2018-03-23T15:15:29.837Z,7.00
2018-03-23T15:17:58.176Z,7.00
2018-03-23T15:20:25.718Z,7.00
2018-03-23T15:22:53.224Z,7.00
2018-03-23T15:25:20.706Z,7.00
2018-03-23T15:27:48.304Z,6.90
2018-03-23T15:30:15.810Z,6.80
2018-03-23T15:32:43.313Z,6.80
2018-03-23T15:35:10.836Z,6.80
2018-03-23T15:37:39.089Z,6.80
2018-03-23T15:40:06.592Z,6.80
2018-03-23T15:42:34.078Z,6.80
2018-03-23T15:45:01.615Z,6.80
2018-03-23T15:47:29.101Z,6.70
2018-03-23T15:49:56.622Z,6.70
2018-03-23T15:52:24.965Z,6.70
2018-03-23T15:54:52.554Z,6.60
2018-03-23T15:57:20.066Z,6.60
2018-03-23T15:59:47.546Z,6.50
2018-03-23T16:02:15.074Z,6.50
2018-03-23T16:04:42.601Z,6.50
2018-03-23T16:07:10.820Z,6.40
2018-03-23T16:09:38.329Z,6.40
2018-03-23T16:12:05.795Z,6.30
2018-03-23T16:14:33.275Z,6.30
2018-03-23T16:17:00.809Z,6.20
2018-03-23T16:19:28.297Z,6.20
2018-03-23T16:21:55.821Z,6.20
2018-03-23T16:24:23.630Z,6.10
2018-03-23T16:26:51.260Z,6.10
2018-03-23T16:29:18.752Z,6.10
2018-03-23T16:31:46.252Z,6.00
2018-03-23T16:34:13.870Z,6.00
2018-03-23T16:36:41.373Z,5.90
2018-03-23T16:39:09.615Z,5.90
2018-03-23T16:41:37.914Z,5.90
2018-03-23T16:44:05.418Z,5.90
2018-03-23T16:46:32.922Z,5.90
2018-03-23T16:49:01.163Z,5.90
2018-03-23T16:51:29.600Z,5.90
2018-03-23T16:53:57.094Z,5.90
2018-03-23T16:56:24.575Z,5.90
2018-03-23T16:58:52.078Z,5.90
2018-03-23T17:01:19.569Z,5.90
2018-03-23T17:03:47.102Z,5.90
2018-03-23T17:06:14.591Z,6.00
2018-03-23T17:08:42.092Z,6.00
2018-03-23T17:11:10.370Z,5.90
2018-03-23T17:13:38.619Z,5.90
2018-03-23T17:16:06.144Z,5.80
2018-03-23T17:18:33.629Z,5.80
2018-03-23T17:21:01.103Z,5.80
2018-03-23T17:23:28.618Z,5.80
2018-03-23T17:25:56.239Z,5.70
2018-03-23T17:28:24.610Z,5.70
2018-03-23T17:30:52.141Z,5.60
2018-03-23T17:33:19.674Z,5.60
2018-03-23T17:35:47.159Z,5.70
2018-03-23T17:38:14.629Z,5.60
2018-03-23T17:40:42.140Z,5.60
2018-03-23T17:43:09.619Z,5.60
2018-03-23T17:45:37.125Z,5.60
2018-03-23T17:48:05.363Z,5.50
2018-03-23T17:50:32.890Z,5.50
2018-03-23T17:53:00.385Z,5.50
2018-03-23T17:55:27.889Z,5.40
2018-03-23T17:57:55.386Z,5.50
2018-03-23T18:00:22.882Z,5.40
2018-03-23T18:02:51.165Z,5.30
2018-03-23T18:05:19.460Z,5.30
2018-03-23T18:07:46.969Z,5.30
2018-03-23T18:10:14.499Z,5.30
2018-03-23T18:12:41.983Z,5.30
2018-03-23T18:15:09.485Z,5.30
2018-03-23T18:17:36.976Z,5.30
2018-03-23T18:20:04.522Z,5.20
2018-03-23T18:22:32.031Z,5.20
2018-03-23T18:24:59.498Z,5.20
2018-03-23T18:27:27.779Z,5.20
2018-03-23T18:29:56.018Z,5.20
2018-03-23T18:32:23.974Z,5.20
2018-03-23T18:34:51.449Z,5.20
2018-03-23T18:37:18.991Z,5.20
2018-03-23T18:39:46.486Z,5.20
2018-03-23T18:42:13.963Z,5.20
2018-03-23T18:44:41.479Z,5.20
2018-03-23T18:47:08.971Z,5.20
2018-03-23T18:49:36.501Z,5.20
2018-03-23T18:52:03.998Z,5.20
2018-03-23T18:54:31.527Z,5.30
2018-03-23T18:56:59.922Z,5.30
2018-03-23T18:59:27.459Z,5.20
2018-03-23T19:01:54.943Z,5.20
2018-03-23T19:04:23.213Z,5.30
2018-03-23T19:06:51.568Z,5.20
2018-03-23T19:09:19.089Z,5.20
2018-03-23T19:11:46.557Z,5.20
2018-03-23T19:14:14.070Z,5.20
2018-03-23T19:16:41.566Z,5.20
2018-03-23T19:19:09.118Z,5.20
2018-03-23T19:21:36.610Z,5.20
2018-03-23T19:24:04.295Z,5.20
2018-03-23T19:26:31.835Z,5.10
2018-03-23T19:28:59.333Z,5.10
2018-03-23T19:31:27.692Z,5.10
2018-03-23T19:33:55.174Z,5.10
2018-03-23T19:36:22.719Z,5.10
2018-03-23T19:38:50.960Z,5.10
2018-03-23T19:41:18.472Z,5.10
2018-03-23T19:43:45.953Z,5.10
2018-03-23T19:46:13.490Z,5.20
2018-03-23T19:48:40.982Z,5.10
2018-03-23T19:51:08.492Z,5.20
2018-03-23T19:53:36.785Z,5.10
2018-03-23T19:56:04.328Z,5.10
2018-03-23T19:58:32.573Z,6.30
2018-03-23T20:01:00.111Z,5.00
2018-03-23T20:03:27.592Z,5.10
2018-03-23T20:05:55.095Z,5.00
2018-03-23T20:08:22.602Z,5.00
2018-03-23T20:10:50.121Z,5.00
2018-03-23T20:13:17.614Z,4.90
2018-03-23T20:15:45.129Z,4.90
2018-03-23T20:18:28.062Z,4.90
2018-03-23T20:21:01.229Z,4.90
2018-03-23T20:23:28.695Z,4.90
2018-03-23T20:25:56.209Z,4.90
2018-03-23T20:28:29.303Z,4.90
2018-03-23T20:30:56.819Z,4.80
2018-03-23T20:33:24.345Z,4.80
2018-03-23T20:35:52.606Z,4.80
2018-03-23T20:38:20.868Z,4.80
2018-03-23T20:40:48.338Z,4.80
2018-03-23T20:43:16.640Z,4.80
2018-03-23T20:45:44.123Z,4.80
2018-03-23T20:48:11.717Z,4.80
2018-03-23T20:50:39.325Z,4.80
2018-03-23T20:53:07.466Z,4.70
2018-03-23T20:55:35.704Z,4.70
2018-03-23T20:58:03.218Z,4.70
2018-03-23T21:00:30.713Z,4.80
2018-03-23T21:02:58.247Z,4.80
2018-03-23T21:05:25.736Z,4.70
2018-03-23T21:07:53.219Z,4.70
2018-03-23T21:10:20.792Z,4.70
2018-03-23T21:12:49.080Z,4.70
2018-03-23T21:15:16.578Z,4.70
2018-03-23T21:17:44.108Z,4.70
2018-03-23T21:20:11.584Z,4.70
2018-03-23T21:22:39.128Z,4.30
2018-03-23T21:25:06.614Z,4.60
2018-03-23T21:27:34.079Z,4.60
2018-03-23T21:30:01.589Z,4.60
2018-03-23T21:32:29.892Z,4.60
2018-03-23T21:34:57.387Z,4.60
2018-03-23T21:37:24.871Z,4.60
2018-03-23T21:39:53.159Z,4.50
2018-03-23T21:42:21.446Z,4.50
2018-03-23T21:44:48.965Z,4.50
2018-03-23T21:47:16.570Z,4.40
2018-03-23T21:49:44.093Z,4.40
2018-03-23T21:52:11.569Z,4.40
2018-03-23T21:54:39.832Z,4.20
2018-03-23T21:57:08.077Z,4.20
2018-03-23T21:59:35.574Z,4.20
2018-03-23T22:02:03.946Z,4.00
2018-03-23T22:04:32.218Z,3.90
2018-03-23T22:07:00.451Z,3.80
2018-03-23T22:09:27.981Z,3.80
2018-03-23T22:11:55.464Z,3.70
2018-03-23T22:14:22.969Z,3.70
2018-03-23T22:16:50.470Z,3.60
2018-03-23T22:19:17.984Z,3.60
2018-03-23T22:21:46.232Z,3.40
2018-03-23T22:24:13.731Z,3.40
2018-03-23T22:26:42.009Z,3.40
2018-03-23T22:29:10.271Z,3.30
2018-03-23T22:31:38.548Z,3.30
2018-03-23T22:34:06.778Z,3.30
2018-03-23T22:36:34.322Z,3.30
2018-03-23T22:39:01.805Z,3.20
2018-03-23T22:41:29.313Z,3.20
2018-03-23T22:43:57.573Z,3.10
2018-03-23T22:46:25.864Z,3.10
2018-03-23T22:48:54.109Z,3.10
2018-03-23T22:51:21.616Z,3.10
2018-03-23T22:53:49.080Z,3.10
2018-03-23T22:56:16.575Z,3.00
2018-03-23T22:58:44.056Z,3.00
2018-03-23T23:01:12.311Z,3.00
2018-03-23T23:03:39.780Z,3.00
2018-03-23T23:06:07.299Z,3.00
2018-03-23T23:08:34.759Z,3.00
2018-03-23T23:11:02.295Z,3.00
2018-03-23T23:13:29.774Z,3.00
2018-03-23T23:15:57.259Z,3.00
2018-03-23T23:18:24.762Z,3.00
2018-03-23T23:20:52.276Z,3.10
2018-03-23T23:23:19.762Z,3.10
2018-03-23T23:25:48.025Z,3.10
2018-03-23T23:28:15.493Z,3.10
2018-03-23T23:30:43.866Z,3.20
2018-03-23T23:33:12.110Z,3.30
2018-03-23T23:35:39.575Z,3.30
2018-03-23T23:38:07.088Z,3.40
2018-03-23T23:40:34.568Z,3.40
2018-03-23T23:43:02.072Z,3.40
2018-03-23T23:45:30.325Z,3.50
2018-03-23T23:47:57.871Z,3.50
2018-03-23T23:50:25.339Z,3.50
2018-03-23T23:52:52.806Z,3.40
2018-03-23T23:55:20.308Z,3.40
2018-03-23T23:57:47.973Z,3.40
